createdAt,value
2018-12-24T00:00:21.699Z,9.88
2018-12-24T00:01:48.693Z,9.82
2018-12-24T00:03:16.540Z,9.81
2018-12-24T00:04:45.153Z,9.82
2018-12-24T00:06:12.296Z,9.75
2018-12-24T00:07:40.086Z,9.75
2018-12-24T00:09:08.165Z,9.75
2018-12-24T00:10:37.826Z,9.78
2018-12-24T00:12:13.852Z,9.72
2018-12-24T00:13:40.678Z,9.81
2018-12-24T00:15:09.007Z,9.71
2018-12-24T00:16:38.430Z,9.71
2018-12-24T00:18:06.890Z,9.63
2018-12-24T00:19:36.892Z,9.82
2018-12-24T00:21:01.627Z,9.75
2018-12-24T00:22:31.378Z,9.74
2018-12-24T00:24:00.340Z,9.89
2018-12-24T00:25:27.998Z,9.82
2018-12-24T00:26:53.947Z,9.82
2018-12-24T00:28:21.694Z,9.85
2018-12-24T00:29:52.341Z,9.82
2018-12-24T00:31:18.621Z,9.88
2018-12-24T00:32:49.079Z,9.77
2018-12-24T00:34:17.736Z,9.78
2018-12-24T00:35:46.940Z,9.71
2018-12-24T00:37:17.538Z,9.67
2018-12-24T00:38:45.029Z,9.7
2018-12-24T00:40:10.860Z,9.7
2018-12-24T00:41:39.609Z,9.7
2018-12-24T00:43:07.101Z,9.63
2018-12-24T00:44:34.753Z,9.63
2018-12-24T00:46:05.521Z,9.64
2018-12-24T00:47:33.940Z,9.63
2018-12-24T00:49:03.062Z,9.59
2018-12-24T00:50:32.597Z,9.55
2018-12-24T00:52:02.114Z,9.57
2018-12-24T00:53:27.753Z,9.57
2018-12-24T00:55:01.219Z,9.56
2018-12-24T00:56:27.392Z,9.59
2018-12-24T00:57:53.743Z,9.52
2018-12-24T00:59:23.340Z,9.6
2018-12-24T01:00:48.708Z,9.59
2018-12-24T01:02:15.839Z,9.6
2018-12-24T01:03:43.380Z,9.57
2018-12-24T01:05:14.578Z,9.52
2018-12-24T01:06:40.834Z,9.56
2018-12-24T01:08:07.580Z,9.62
2018-12-24T01:09:38.021Z,9.56
2018-12-24T01:11:07.101Z,9.64
2018-12-24T01:12:34.896Z,9.57
2018-12-24T01:14:06.041Z,9.59
2018-12-24T01:15:34.529Z,9.6
2018-12-24T01:17:03.190Z,9.53
2018-12-24T01:18:29.478Z,9.59
2018-12-24T01:19:57.088Z,9.56
2018-12-24T01:21:16.018Z,9.53
2018-12-24T01:22:25.667Z,9.64
2018-12-24T01:23:35.253Z,9.57
2018-12-24T01:24:45.313Z,9.64
2018-12-24T01:25:54.864Z,9.66
2018-12-24T01:27:09.415Z,9.55
2018-12-24T01:28:19.567Z,9.53
2018-12-24T01:29:29.644Z,9.57
2018-12-24T01:30:39.715Z,9.59
2018-12-24T01:31:49.775Z,9.53
2018-12-24T01:32:59.887Z,9.53
2018-12-24T01:34:09.967Z,9.59
2018-12-24T01:35:20.040Z,9.6
2018-12-24T01:36:29.842Z,9.59
2018-12-24T01:37:39.920Z,9.42
2018-12-24T01:38:50.004Z,9.59
2018-12-24T01:40:00.090Z,9.53
2018-12-24T01:41:10.248Z,9.5
2018-12-24T01:42:20.295Z,9.5
2018-12-24T01:43:38.641Z,9.48
2018-12-24T01:44:48.681Z,9.47
2018-12-24T01:45:58.732Z,9.55
2018-12-24T01:47:08.808Z,9.45
2018-12-24T01:48:18.605Z,9.45
2018-12-24T01:49:28.149Z,9.48
2018-12-24T01:50:37.965Z,9.5
2018-12-24T01:51:48.034Z,9.5
2018-12-24T01:52:57.828Z,9.53
2018-12-24T01:54:07.761Z,9.48
2018-12-24T01:55:17.834Z,9.45
2018-12-24T01:56:27.664Z,9.48
2018-12-24T01:57:37.731Z,9.53
2018-12-24T01:58:48.049Z,9.53
2018-12-24T01:59:57.325Z,9.56
2018-12-24T02:01:08.800Z,9.57
2018-12-24T02:02:18.952Z,9.6
2018-12-24T02:03:29.026Z,9.59
2018-12-24T02:04:38.831Z,9.64
2018-12-24T02:05:48.855Z,9.63
2018-12-24T02:06:58.930Z,9.55
2018-12-24T02:08:10.416Z,9.56
2018-12-24T02:09:20.742Z,9.55
2018-12-24T02:10:30.615Z,9.52
2018-12-24T02:11:40.730Z,9.53
2018-12-24T02:12:51.020Z,9.63
2018-12-24T02:14:01.156Z,9.59
2018-12-24T02:15:11.209Z,9.5
2018-12-24T02:16:21.038Z,9.55
2018-12-24T02:17:31.126Z,9.66
2018-12-24T02:21:21.338Z,9.56
2018-12-24T02:22:31.406Z,9.6
2018-12-24T02:23:41.492Z,9.62
2018-12-24T02:24:51.812Z,9.63
2018-12-24T02:26:01.909Z,9.66
2018-12-24T02:27:11.984Z,9.62
2018-12-24T02:28:21.819Z,9.63
2018-12-24T02:29:31.895Z,9.67
2018-12-24T02:30:42.005Z,9.66
2018-12-24T02:31:52.186Z,9.57
2018-12-24T02:33:01.983Z,9.67
2018-12-24T02:34:11.801Z,9.62
2018-12-24T02:35:21.906Z,9.66
2018-12-24T02:36:31.728Z,9.59
2018-12-24T02:37:41.587Z,9.62
2018-12-24T02:38:51.629Z,9.57
2018-12-24T02:40:02.134Z,9.66
2018-12-24T02:41:12.262Z,9.57
2018-12-24T02:42:22.609Z,9.59
2018-12-24T02:43:32.722Z,9.56
2018-12-24T02:44:42.860Z,9.63
2018-12-24T02:45:52.970Z,9.6
2018-12-24T02:47:05.361Z,9.55
2018-12-24T02:48:15.440Z,9.59
2018-12-24T02:49:25.511Z,9.59
2018-12-24T02:50:35.418Z,9.52
2018-12-24T02:51:45.486Z,9.52
2018-12-24T02:52:55.626Z,9.47
2018-12-24T02:54:05.726Z,9.55
2018-12-24T02:55:15.796Z,9.48
2018-12-24T02:56:25.910Z,9.45
2018-12-24T02:57:35.990Z,9.55
2018-12-24T02:58:46.075Z,9.52
2018-12-24T02:59:56.203Z,9.44
2018-12-24T03:01:06.426Z,9.45
2018-12-24T03:02:16.592Z,9.48
2018-12-24T03:34:28.964Z,7.51
2018-12-24T03:35:39.028Z,7.52
2018-12-24T03:36:49.113Z,7.59
2018-12-24T03:37:59.182Z,7.63
2018-12-24T03:39:09.226Z,7.64
2018-12-24T03:40:19.110Z,7.73
2018-12-24T03:41:28.912Z,7.77
2018-12-24T03:42:38.996Z,7.88
2018-12-24T03:43:48.568Z,8.06
2018-12-24T03:44:58.384Z,8.07
2018-12-24T03:46:08.464Z,8.14
2018-12-24T03:47:18.652Z,8.31
2018-12-24T03:48:29.105Z,8.42
2018-12-24T03:49:39.343Z,8.49
2018-12-24T03:50:49.388Z,8.65
2018-12-24T03:51:59.693Z,8.69
2018-12-24T03:53:09.752Z,8.77
2018-12-24T03:54:19.560Z,8.87
2018-12-24T03:55:29.730Z,8.87
2018-12-24T03:56:39.794Z,8.83
2018-12-24T03:57:49.898Z,8.94
2018-12-24T03:58:59.997Z,8.97
2018-12-24T04:00:11.236Z,8.97
2018-12-24T04:01:21.660Z,8.94
2018-12-24T04:02:31.972Z,9.03
2018-12-24T04:03:41.802Z,9.12
2018-12-24T04:04:51.900Z,9.05
2018-12-24T04:06:01.999Z,9
2018-12-24T04:07:11.865Z,9.12
2018-12-24T04:08:21.986Z,9.14
2018-12-24T04:09:32.054Z,9.14
2018-12-24T04:10:42.149Z,9.14
2018-12-24T04:11:52.248Z,9.09
2018-12-24T04:13:02.294Z,9.14
2018-12-24T04:14:12.575Z,9.17
2018-12-24T04:15:22.438Z,9.14
2018-12-24T04:16:32.544Z,9.21
2018-12-24T04:17:42.620Z,9.19
2018-12-24T04:18:52.669Z,9.19
2018-12-24T04:20:02.324Z,9.16
2018-12-24T04:21:12.483Z,9.17
2018-12-24T04:22:22.828Z,9.19
2018-12-24T04:23:32.905Z,9.21
2018-12-24T04:24:42.713Z,9.21
2018-12-24T04:25:52.825Z,9.24
2018-12-24T04:27:02.513Z,9.24
2018-12-24T04:28:12.335Z,9.2
2018-12-24T04:29:22.396Z,9.23
2018-12-24T04:30:32.256Z,9.24
2018-12-24T04:31:42.335Z,9.16
2018-12-24T04:32:52.426Z,9.12
2018-12-24T04:34:02.221Z,9.16
2018-12-24T04:35:12.045Z,9.16
2018-12-24T04:36:21.608Z,9.09
2018-12-24T04:37:31.950Z,9.14
2018-12-24T04:38:42.163Z,9.17
2018-12-24T04:39:51.974Z,9.16
2018-12-24T04:41:02.041Z,9.11
2018-12-24T04:42:12.090Z,9.21
2018-12-24T04:43:31.799Z,9.24
2018-12-24T04:44:42.196Z,9.26
2018-12-24T04:45:52.251Z,9.21
2018-12-24T04:47:02.092Z,9.12
2018-12-24T04:48:12.167Z,9.21
2018-12-24T04:49:22.233Z,9.23
2018-12-24T04:50:32.300Z,9.26
2018-12-24T04:51:42.359Z,9.26
2018-12-24T04:52:52.418Z,9.19
2018-12-24T04:54:02.456Z,9.24
2018-12-24T04:55:12.318Z,9.27
2018-12-24T04:56:22.663Z,9.3
2018-12-24T04:57:33.460Z,9.23
2018-12-24T04:58:43.582Z,9.23
2018-12-24T04:59:53.662Z,9.26
2018-12-24T05:01:03.747Z,9.27
2018-12-24T05:02:13.833Z,9.32
2018-12-24T05:03:24.037Z,9.27
2018-12-24T05:04:33.844Z,9.27
2018-12-24T05:05:43.900Z,9.3
2018-12-24T05:06:53.715Z,9.32
2018-12-24T05:08:03.552Z,9.29
2018-12-24T05:09:13.348Z,9.32
2018-12-24T05:10:23.415Z,9.32
2018-12-24T05:11:33.703Z,9.34
2018-12-24T05:12:43.773Z,9.32
2018-12-24T05:13:53.850Z,9.37
2018-12-24T05:15:03.917Z,9.34
2018-12-24T05:16:13.988Z,9.38
2018-12-24T05:17:24.130Z,9.32
2018-12-24T05:18:34.184Z,9.16
2018-12-24T05:19:44.238Z,9.16
2018-12-24T05:20:54.205Z,9.04
2018-12-24T05:22:04.260Z,8.97
2018-12-24T05:23:14.415Z,8.77
2018-12-24T05:24:23.704Z,8.8
2018-12-24T05:25:33.496Z,8.65
2018-12-24T05:26:43.793Z,8.64
2018-12-24T05:27:53.838Z,8.6
2018-12-24T05:29:03.911Z,8.61
2018-12-24T05:30:13.792Z,8.6
2018-12-24T05:31:23.866Z,8.44
2018-12-24T05:32:33.932Z,8.53
2018-12-24T05:33:44.259Z,8.39
2018-12-24T05:34:54.060Z,8.43
2018-12-24T05:36:04.419Z,8.49
2018-12-24T05:37:14.471Z,8.43
2018-12-24T05:38:24.521Z,8.44
2018-12-24T05:39:34.322Z,8.43
2018-12-24T05:40:44.371Z,8.31
2018-12-24T05:41:54.438Z,8.36
2018-12-24T05:43:04.243Z,8.31
2018-12-24T05:44:14.294Z,8.35
2018-12-24T05:45:24.354Z,8.29
2018-12-24T05:46:34.152Z,8.16
2018-12-24T05:47:44.237Z,8.16
2018-12-24T05:48:54.289Z,8.13
2018-12-24T05:50:04.113Z,8.04
2018-12-24T05:51:14.155Z,8.04
2018-12-24T05:52:24.231Z,7.89
2018-12-24T05:53:34.287Z,7.93
2018-12-24T05:54:44.339Z,7.92
2018-12-24T05:55:54.378Z,7.88
2018-12-24T05:57:04.524Z,7.78
2018-12-24T05:58:14.598Z,7.77
2018-12-24T05:59:24.670Z,7.75
2018-12-24T06:00:34.736Z,7.77
2018-12-24T06:01:44.801Z,7.75
2018-12-24T06:02:54.870Z,7.64
2018-12-24T06:04:04.929Z,7.59
2018-12-24T06:05:15.146Z,7.73
2018-12-24T06:06:24.943Z,7.52
2018-12-24T06:07:34.766Z,7.59
2018-12-24T06:08:44.871Z,7.58
2018-12-24T06:09:54.669Z,7.45
2018-12-24T06:11:04.725Z,7.51
2018-12-24T06:12:14.517Z,7.48
2018-12-24T06:13:24.586Z,7.44
2018-12-24T06:14:34.642Z,7.48
2018-12-24T06:15:44.908Z,7.55
2018-12-24T06:16:55.169Z,7.45
2018-12-24T06:18:06.175Z,7.33
2018-12-24T06:19:16.366Z,7.37
2018-12-24T06:20:26.455Z,7.33
2018-12-24T06:21:45.377Z,7.34
2018-12-24T06:22:55.452Z,7.22
2018-12-24T06:24:05.644Z,7.3
2018-12-24T06:25:15.712Z,7.23
2018-12-24T06:26:25.765Z,7.21
2018-12-24T06:27:35.585Z,7.3
2018-12-24T06:28:45.686Z,7.31
2018-12-24T06:29:55.847Z,7.21
2018-12-24T06:31:09.963Z,7.19
2018-12-24T06:32:20.026Z,7.15
2018-12-24T06:33:30.342Z,7.26
2018-12-24T06:34:40.371Z,7.15
2018-12-24T06:35:50.430Z,7.11
2018-12-24T06:37:01.403Z,7.18
2018-12-24T06:38:11.459Z,7.08
2018-12-24T06:39:21.365Z,7.11
2018-12-24T06:40:31.656Z,7.09
2018-12-24T06:41:41.493Z,7.16
2018-12-24T06:42:51.547Z,7.08
2018-12-24T06:44:09.036Z,7.09
2018-12-24T06:45:19.341Z,7.05
2018-12-24T06:46:29.404Z,7.01
2018-12-24T06:47:39.209Z,7.04
2018-12-24T06:48:49.327Z,7.01
2018-12-24T06:49:59.385Z,7.03
2018-12-24T06:51:09.978Z,7.01
2018-12-24T06:52:19.785Z,6.97
2018-12-24T06:53:29.853Z,6.93
2018-12-24T06:54:39.921Z,6.91
2018-12-24T06:55:49.979Z,6.94
2018-12-24T06:57:00.047Z,6.98
2018-12-24T06:58:10.203Z,6.95
2018-12-24T06:59:20.424Z,6.86
2018-12-24T07:00:30.505Z,6.85
2018-12-24T07:01:40.615Z,6.88
2018-12-24T07:02:50.672Z,6.9
2018-12-24T07:04:00.765Z,6.88
2018-12-24T07:05:10.816Z,6.9
2018-12-24T07:06:20.897Z,6.8
2018-12-24T07:07:30.974Z,6.86
2018-12-24T07:08:40.790Z,6.86
2018-12-24T07:09:50.629Z,6.94
2018-12-24T07:11:00.795Z,6.8
2018-12-24T07:12:11.100Z,6.8
2018-12-24T07:13:21.147Z,6.83
2018-12-24T07:14:31.199Z,6.75
2018-12-24T07:15:42.110Z,6.78
2018-12-24T07:16:52.026Z,6.79
2018-12-24T07:18:03.046Z,6.82
2018-12-24T07:19:12.862Z,6.79
2018-12-24T07:20:22.776Z,6.82
2018-12-24T07:21:32.573Z,6.8
2018-12-24T07:22:42.621Z,6.76
2018-12-24T07:23:52.698Z,6.85
2018-12-24T07:25:03.740Z,6.83
2018-12-24T07:26:13.970Z,6.82
2018-12-24T07:27:24.114Z,6.82
2018-12-24T07:28:34.189Z,6.79
2018-12-24T07:29:44.296Z,6.8
2018-12-24T07:30:54.118Z,6.78
2018-12-24T07:32:04.199Z,6.72
2018-12-24T07:33:14.058Z,6.8
2018-12-24T07:34:32.114Z,6.73
2018-12-24T07:35:42.221Z,6.72
2018-12-24T07:36:52.093Z,6.78
2018-12-24T07:38:03.078Z,6.78
2018-12-24T07:39:13.271Z,6.76
2018-12-24T07:40:23.547Z,6.79
2018-12-24T07:41:33.611Z,6.85
2018-12-24T07:42:43.892Z,6.83
2018-12-24T07:43:53.800Z,6.88
2018-12-24T07:45:03.862Z,6.76
2018-12-24T07:46:13.669Z,6.85
2018-12-24T07:47:23.802Z,6.91
2018-12-24T07:48:33.952Z,6.83
2018-12-24T07:49:43.867Z,6.93
2018-12-24T07:50:53.922Z,6.93
2018-12-24T07:52:03.980Z,6.93
2018-12-24T07:53:14.047Z,6.91
2018-12-24T07:54:24.214Z,6.95
2018-12-24T07:55:34.083Z,6.91
2018-12-24T07:56:44.115Z,6.86
2018-12-24T07:57:54.198Z,6.95
2018-12-24T07:59:05.532Z,7
2018-12-24T08:00:15.952Z,6.98
2018-12-24T08:01:26.218Z,7
2018-12-24T08:02:36.723Z,6.98
2018-12-24T08:03:46.784Z,7.04
2018-12-24T08:04:56.846Z,7.04
2018-12-24T08:06:07.761Z,7.01
2018-12-24T08:07:18.181Z,7.08
2018-12-24T08:08:28.266Z,7.03
2018-12-24T08:09:38.350Z,7.04
2018-12-24T08:10:48.601Z,7.03
2018-12-24T08:11:59.135Z,7.09
2018-12-24T08:13:09.249Z,7.09
2018-12-24T08:14:19.350Z,7.11
2018-12-24T08:15:37.797Z,7.09
2018-12-24T08:16:47.866Z,7.03
2018-12-24T08:17:57.917Z,7.03
2018-12-24T08:19:08.078Z,7.01
2018-12-24T08:20:17.880Z,7.03
2018-12-24T08:21:27.945Z,7.03
2018-12-24T08:22:38.031Z,7.04
2018-12-24T08:23:48.145Z,7.05
2018-12-24T08:24:58.357Z,7.08
2018-12-24T08:26:10.729Z,7.23
2018-12-24T08:27:20.560Z,7.22
2018-12-24T08:28:30.648Z,7.23
2018-12-24T08:29:40.707Z,7.19
2018-12-24T08:30:50.826Z,7.4
2018-12-24T08:32:00.897Z,7.41
2018-12-24T08:33:10.713Z,7.39
2018-12-24T08:34:21.004Z,7.52
2018-12-24T08:35:32.342Z,7.63
2018-12-24T08:36:42.877Z,7.68
2018-12-24T08:37:53.626Z,7.74
2018-12-24T08:39:03.788Z,7.92
2018-12-24T08:40:14.075Z,7.98
2018-12-24T08:41:24.207Z,7.92
2018-12-24T08:42:34.275Z,7.88
2018-12-24T08:43:44.078Z,7.85
2018-12-24T08:44:54.155Z,7.92
2018-12-24T08:46:04.274Z,7.71
2018-12-24T08:47:14.350Z,7.68
2018-12-24T08:48:24.220Z,7.75
2018-12-24T08:49:34.317Z,7.74
2018-12-24T08:50:44.413Z,7.74
2018-12-24T08:51:54.474Z,7.73
2018-12-24T08:53:04.266Z,7.74
2018-12-24T08:54:14.371Z,7.64
2018-12-24T08:55:24.427Z,7.58
2018-12-24T08:56:34.228Z,7.67
2018-12-24T08:57:44.341Z,7.68
2018-12-24T08:58:54.406Z,7.75
2018-12-24T09:00:06.003Z,7.85
2018-12-24T09:01:16.267Z,7.88
2018-12-24T09:02:26.587Z,7.86
2018-12-24T09:03:36.675Z,7.88
2018-12-24T09:04:46.721Z,7.88
2018-12-24T09:05:56.847Z,7.89
2018-12-24T09:07:08.150Z,7.96
2018-12-24T09:08:18.228Z,7.89
2018-12-24T09:09:28.307Z,7.93
2018-12-24T09:10:38.372Z,8.03
2018-12-24T09:11:48.476Z,8.11
2018-12-24T09:12:58.566Z,8.35
2018-12-24T09:14:08.649Z,8.44
2018-12-24T09:15:18.460Z,8.58
2018-12-24T09:16:28.548Z,8.61
2018-12-24T09:17:39.995Z,8.69
2018-12-24T09:18:50.092Z,8.65
2018-12-24T09:20:00.163Z,8.72
2018-12-24T09:21:09.951Z,8.65
2018-12-24T09:22:20.097Z,8.64
2018-12-24T09:23:30.172Z,8.61
2018-12-24T09:24:40.249Z,8.69
2018-12-24T09:25:50.378Z,8.67
2018-12-24T09:27:00.470Z,8.69
2018-12-24T09:28:10.576Z,8.72
2018-12-24T09:29:20.688Z,8.64
2018-12-24T09:30:30.769Z,8.49
2018-12-24T09:31:40.883Z,8.42
2018-12-24T09:32:50.743Z,8.42
2018-12-24T09:34:01.060Z,8.24
2018-12-24T09:35:11.832Z,8.16
2018-12-24T09:36:21.939Z,8.1
2018-12-24T09:37:32.087Z,7.99
2018-12-24T09:38:42.165Z,8.04
2018-12-24T09:39:51.997Z,7.93
2018-12-24T09:41:01.614Z,7.89
2018-12-24T09:42:11.727Z,7.93
2018-12-24T09:43:21.823Z,7.99
2018-12-24T09:44:31.913Z,7.88
2018-12-24T09:45:41.996Z,7.92
2018-12-24T09:46:52.322Z,8.07
2018-12-24T09:48:03.450Z,8.13
2018-12-24T09:49:13.617Z,8.01
2018-12-24T09:50:23.699Z,8.09
2018-12-24T09:51:33.539Z,8.16
2018-12-24T09:52:43.693Z,8.13
2018-12-24T09:53:53.796Z,8.29
2018-12-24T09:55:03.898Z,8.44
2018-12-24T09:56:16.998Z,8.4
2018-12-24T09:57:27.852Z,8.44
2018-12-24T09:58:38.105Z,8.47
2018-12-24T09:59:48.219Z,8.31
2018-12-24T10:00:58.294Z,8.42
2018-12-24T10:02:09.116Z,8.4
2018-12-24T10:03:19.197Z,8.44
2018-12-24T10:04:29.304Z,8.46
2018-12-24T10:05:39.372Z,8.43
2018-12-24T10:06:49.734Z,8.52
2018-12-24T10:07:59.817Z,8.47
2018-12-24T10:09:09.894Z,8.57
2018-12-24T10:10:19.726Z,8.71
2018-12-24T10:11:29.290Z,8.8
2018-12-24T10:12:39.371Z,9.08
2018-12-24T10:13:48.982Z,9.08
2018-12-24T10:15:07.514Z,9.17
2018-12-24T10:16:18.081Z,9.3
2018-12-24T10:17:28.139Z,9.42
2018-12-24T10:18:37.991Z,9.45
2018-12-24T10:19:47.813Z,9.59
2018-12-24T10:20:57.903Z,9.7
2018-12-24T10:22:07.747Z,9.8
2018-12-24T10:23:17.839Z,9.82
2018-12-24T10:24:27.927Z,9.88
2018-12-24T10:25:38.002Z,9.99
2018-12-24T10:26:48.018Z,9.88
2018-12-24T10:27:58.448Z,9.85
2018-12-24T10:29:10.942Z,9.81
2018-12-24T10:30:20.900Z,9.75
2018-12-24T10:31:30.972Z,9.63
2018-12-24T10:32:40.789Z,9.63
2018-12-24T10:33:50.618Z,9.66
2018-12-24T10:35:00.709Z,9.56
2018-12-24T10:36:10.803Z,9.56
2018-12-24T10:37:20.881Z,9.7
2018-12-24T10:38:31.004Z,9.88
2018-12-24T10:39:41.125Z,9.71
2018-12-24T10:40:50.929Z,9.78
2018-12-24T10:42:00.994Z,9.8
2018-12-24T10:43:11.068Z,9.85
2018-12-24T10:44:20.897Z,9.89
2018-12-24T10:45:31.025Z,9.82
2018-12-24T10:46:41.147Z,9.84
2018-12-24T10:47:51.639Z,9.85
2018-12-24T10:49:01.504Z,9.98
2018-12-24T10:50:11.585Z,9.93
2018-12-24T10:51:21.501Z,9.92
2018-12-24T10:52:31.589Z,10.07
2018-12-24T10:53:41.476Z,9.96
2018-12-24T10:54:51.323Z,9.98
2018-12-24T10:56:02.251Z,9.99
2018-12-24T10:57:12.379Z,9.84
2018-12-24T10:58:22.480Z,9.82
2018-12-24T10:59:32.591Z,9.72
2018-12-24T11:00:42.705Z,9.74
2018-12-24T11:01:52.854Z,9.81
2018-12-24T11:03:05.355Z,9.81
2018-12-24T11:04:15.441Z,9.84
2018-12-24T11:05:25.542Z,9.77
2018-12-24T11:06:35.613Z,9.57
2018-12-24T11:07:45.478Z,9.5
2018-12-24T11:08:55.319Z,9.39
2018-12-24T11:10:05.420Z,9.32
2018-12-24T11:11:15.550Z,9.55
2018-12-24T11:12:25.406Z,9.52
2018-12-24T11:13:35.646Z,9.55
2018-12-24T11:14:46.939Z,9.64
2018-12-24T11:15:56.773Z,9.63
2018-12-24T11:17:06.858Z,9.77
2018-12-24T11:18:16.935Z,9.64
2018-12-24T11:19:26.764Z,9.7
2018-12-24T11:20:36.598Z,9.66
2018-12-24T11:21:46.672Z,9.63
2018-12-24T11:22:56.737Z,9.6
2018-12-24T11:24:06.819Z,9.52
2018-12-24T11:25:16.673Z,9.41
2018-12-24T11:26:26.495Z,9.44
2018-12-24T11:27:36.532Z,9.37
2018-12-24T11:28:46.634Z,9.41
2018-12-24T11:29:56.425Z,9.32
2018-12-24T11:31:06.267Z,9.26
2018-12-24T11:32:16.373Z,9.38
2018-12-24T11:33:26.450Z,9.41
2018-12-24T11:34:36.517Z,9.53
2018-12-24T11:35:46.573Z,9.71
2018-12-24T11:36:56.718Z,9.84
2018-12-24T11:38:08.112Z,9.82
2018-12-24T11:39:17.920Z,9.9
2018-12-24T11:40:28.121Z,9.81
2018-12-24T11:41:38.228Z,9.88
2018-12-24T11:42:48.369Z,9.63
2018-12-24T11:43:58.679Z,9.53
2018-12-24T11:45:08.482Z,9.6
2018-12-24T11:46:18.586Z,9.6
2018-12-24T11:47:28.659Z,9.56
2018-12-24T11:48:38.888Z,9.63
2018-12-24T11:49:48.948Z,9.53
2018-12-24T11:50:59.033Z,9.56
2018-12-24T11:52:09.123Z,9.44
2018-12-24T11:53:19.192Z,9.53
2018-12-24T11:54:29.357Z,9.5
2018-12-24T11:55:39.438Z,9.57
2018-12-24T11:56:49.513Z,9.67
2018-12-24T11:57:59.614Z,9.77
2018-12-24T11:59:09.748Z,9.82
2018-12-24T12:00:20.297Z,9.92
2018-12-24T12:01:30.111Z,10.17
2018-12-24T12:02:40.192Z,10.23
2018-12-24T12:03:50.049Z,10.36
2018-12-24T12:04:59.957Z,10.36
2018-12-24T12:06:10.099Z,10.38
2018-12-24T12:07:27.533Z,10.32
2018-12-24T12:08:37.387Z,10.51
2018-12-24T12:09:47.460Z,10.75
2018-12-24T12:10:57.568Z,10.73
2018-12-24T12:12:09.374Z,11.03
2018-12-24T12:13:19.514Z,11.18
2018-12-24T12:14:29.582Z,11.31
2018-12-24T12:15:47.405Z,11.18
2018-12-24T12:16:57.507Z,11.28
2018-12-24T12:18:07.820Z,11.49
2018-12-24T12:19:17.887Z,11.84
2018-12-24T12:20:27.970Z,12.41
2018-12-24T12:21:37.797Z,13.54
2018-12-24T12:22:47.606Z,14.09
2018-12-24T12:23:57.674Z,14.57
2018-12-24T12:25:07.761Z,15.01
2018-12-24T12:26:17.855Z,15.31
2018-12-24T12:27:27.697Z,14.64
2018-12-24T12:28:37.826Z,13.88
2018-12-24T12:29:47.697Z,13.28
2018-12-24T12:30:57.761Z,12.56
2018-12-24T12:32:07.835Z,12.29
2018-12-24T12:33:17.651Z,12
2018-12-24T12:34:27.730Z,11.79
2018-12-24T12:35:37.850Z,11.6
2018-12-24T12:36:47.953Z,11.38
2018-12-24T12:37:58.024Z,11.1
2018-12-24T12:39:08.948Z,10.92
2018-12-24T12:40:18.786Z,10.9
2018-12-24T12:41:28.931Z,10.84
2018-12-24T12:42:39.027Z,10.77
2018-12-24T12:43:49.113Z,10.65
2018-12-24T12:44:59.200Z,10.51
2018-12-24T12:46:09.278Z,10.41
2018-12-24T12:47:19.615Z,10.31
2018-12-24T12:48:29.716Z,10.13
2018-12-24T12:49:39.533Z,9.9
2018-12-24T12:50:49.606Z,9.85
2018-12-24T12:51:59.682Z,9.7
2018-12-24T12:53:10.072Z,9.57
2018-12-24T12:54:20.152Z,9.52
2018-12-24T12:55:30.385Z,9.42
2018-12-24T12:56:40.195Z,9.41
2018-12-24T12:57:50.268Z,9.41
2018-12-24T12:59:03.243Z,9.37
2018-12-24T13:00:13.839Z,9.35
2018-12-24T13:01:24.381Z,9.34
2018-12-24T13:02:34.440Z,9.3
2018-12-24T13:03:44.540Z,9.32
2018-12-24T13:04:54.662Z,9.57
2018-12-24T13:06:04.449Z,9.77
2018-12-24T13:07:14.522Z,9.75
2018-12-24T13:08:24.606Z,9.74
2018-12-24T13:09:34.684Z,9.78
2018-12-24T13:10:44.757Z,9.85
2018-12-24T13:11:54.802Z,9.82
2018-12-24T13:13:04.899Z,9.84
2018-12-24T13:14:14.832Z,9.85
2018-12-24T13:15:24.906Z,9.7
2018-12-24T13:16:34.792Z,9.52
2018-12-24T13:17:44.707Z,9.41
2018-12-24T13:18:54.794Z,9.44
2018-12-24T13:20:04.627Z,9.44
2018-12-24T13:21:14.719Z,9.47
2018-12-24T13:22:24.535Z,9.6
2018-12-24T13:23:34.620Z,9.41
2018-12-24T13:24:44.569Z,9.55
2018-12-24T13:25:54.851Z,9.53
2018-12-24T13:27:06.858Z,9.59
2018-12-24T13:28:17.153Z,9.52
2018-12-24T13:29:26.988Z,9.35
2018-12-24T13:30:37.094Z,9.42
2018-12-24T13:31:47.165Z,9.32
2018-12-24T13:32:56.991Z,9.38
2018-12-24T13:34:07.311Z,9.44
2018-12-24T13:35:17.418Z,9.45
2018-12-24T13:36:27.497Z,9.44
2018-12-24T13:37:37.362Z,9.62
2018-12-24T13:38:47.698Z,9.45
2018-12-24T13:39:57.799Z,9.55
2018-12-24T13:41:08.025Z,9.52
2018-12-24T13:42:18.105Z,9.5
2018-12-24T13:43:28.186Z,9.48
2018-12-24T13:44:37.765Z,9.21
2018-12-24T13:45:47.886Z,9.27
2018-12-24T13:46:57.978Z,9.23
2018-12-24T13:48:08.638Z,9.11
2018-12-24T13:49:18.815Z,9.05
2018-12-24T13:50:29.151Z,9.08
2018-12-24T13:51:39.268Z,8.94
2018-12-24T13:52:49.362Z,8.8
2018-12-24T13:53:59.455Z,8.79
2018-12-24T13:55:09.532Z,8.85
2018-12-24T13:56:19.590Z,8.69
2018-12-24T13:57:29.788Z,8.57
2018-12-24T13:58:39.633Z,8.68
2018-12-24T13:59:49.726Z,8.65
2018-12-24T14:00:59.793Z,8.58
2018-12-24T14:02:10.165Z,8.54
2018-12-24T14:03:22.032Z,8.35
2018-12-24T14:04:32.192Z,8.17
2018-12-24T14:05:42.333Z,8.28
2018-12-24T14:06:52.426Z,8.1
2018-12-24T14:08:02.502Z,8.07
2018-12-24T14:09:12.677Z,7.89
2018-12-24T14:10:22.811Z,7.89
2018-12-24T14:11:32.905Z,7.96
2018-12-24T14:12:43.027Z,7.88
2018-12-24T14:13:53.229Z,7.93
2018-12-24T14:15:04.788Z,7.89
2018-12-24T14:16:21.746Z,7.99
2018-12-24T14:17:31.679Z,8.14
2018-12-24T14:18:41.825Z,8.24
2018-12-24T14:19:51.893Z,8.29
2018-12-24T14:21:02.076Z,8.28
2018-12-24T14:22:12.147Z,8.36
2018-12-24T14:23:22.002Z,8.25
2018-12-24T14:24:32.087Z,8.25
2018-12-24T14:25:43.219Z,8.19
2018-12-24T14:26:53.418Z,8.24
2018-12-24T14:28:04.016Z,8.26
2018-12-24T14:29:14.645Z,8.26
2018-12-24T14:30:24.736Z,8.28
2018-12-24T14:31:34.825Z,8.19
2018-12-24T14:32:44.652Z,8.24
2018-12-24T14:33:54.756Z,8.11
2018-12-24T14:35:04.834Z,8.1
2018-12-24T14:36:14.951Z,7.96
2018-12-24T14:37:25.344Z,7.95
2018-12-24T14:38:35.355Z,7.95
2018-12-24T14:39:46.474Z,7.95
2018-12-24T14:40:56.577Z,7.91
2018-12-24T14:42:07.637Z,7.82
2018-12-24T14:43:17.725Z,7.73
2018-12-24T14:44:27.545Z,7.71
2018-12-24T14:45:37.434Z,7.59
2018-12-24T14:46:47.530Z,7.56
2018-12-24T14:47:57.445Z,7.47
2018-12-24T14:49:08.488Z,7.37
2018-12-24T14:50:18.631Z,7.41
2018-12-24T14:51:28.791Z,7.34
2018-12-24T14:52:38.600Z,7.34
2018-12-24T14:53:48.708Z,7.26
2018-12-24T14:54:58.519Z,7.23
2018-12-24T14:56:08.908Z,7.12
2018-12-24T14:57:19.004Z,7.12
2018-12-24T14:58:28.901Z,7.12
2018-12-24T14:59:39.078Z,7.03
2018-12-24T15:00:49.217Z,6.98
2018-12-24T15:01:59.390Z,7.01
2018-12-24T15:03:08.976Z,7.01
2018-12-24T15:04:19.065Z,6.9
2018-12-24T15:05:29.201Z,6.97
2018-12-24T15:06:39.387Z,6.95
2018-12-24T15:07:49.471Z,6.9
2018-12-24T15:08:59.314Z,6.88
2018-12-24T15:10:09.405Z,6.83
2018-12-24T15:11:19.249Z,6.91
2018-12-24T15:12:29.340Z,6.82
2018-12-24T15:13:39.413Z,6.82
2018-12-24T15:14:49.506Z,6.83
2018-12-24T15:15:59.594Z,6.8
2018-12-24T15:17:09.909Z,6.75
2018-12-24T15:18:19.967Z,6.76
2018-12-24T15:19:29.794Z,6.78
2018-12-24T15:20:39.896Z,6.72
2018-12-24T15:21:49.755Z,6.8
2018-12-24T15:22:59.821Z,6.7
2018-12-24T15:24:10.008Z,6.8
2018-12-24T15:25:20.078Z,6.68
2018-12-24T15:26:30.158Z,6.76
2018-12-24T15:27:40.239Z,6.7
2018-12-24T15:28:50.314Z,6.7
2018-12-24T15:30:02.599Z,6.67
2018-12-24T15:31:12.479Z,6.62
2018-12-24T15:32:22.532Z,6.67
2018-12-24T15:33:32.379Z,6.54
2018-12-24T15:34:42.437Z,6.61
2018-12-24T15:35:52.514Z,6.55
2018-12-24T15:37:03.887Z,6.57
2018-12-24T15:38:14.113Z,6.61
2018-12-24T15:39:23.937Z,6.58
2018-12-24T15:40:34.217Z,6.54
2018-12-24T15:41:44.037Z,6.57
2018-12-24T15:42:53.869Z,6.55
2018-12-24T15:44:03.954Z,6.54
2018-12-24T15:45:14.042Z,6.54
2018-12-24T15:46:24.123Z,6.51
2018-12-24T15:47:36.229Z,6.49
2018-12-24T15:48:46.267Z,6.54
2018-12-24T15:49:56.089Z,6.51
2018-12-24T15:51:06.555Z,6.57
2018-12-24T15:52:16.618Z,6.44
2018-12-24T15:53:26.694Z,6.58
2018-12-24T15:54:36.761Z,6.62
2018-12-24T15:55:46.887Z,6.52
2018-12-24T15:56:57.025Z,6.55
2018-12-24T15:58:07.854Z,6.54
2018-12-24T15:59:20.037Z,6.54
2018-12-24T16:00:30.579Z,6.55
2018-12-24T16:01:40.637Z,6.52
2018-12-24T16:02:50.719Z,6.57
2018-12-24T16:04:02.394Z,6.51
2018-12-24T16:05:12.191Z,6.57
2018-12-24T16:06:22.256Z,6.52
2018-12-24T16:07:31.563Z,6.54
2018-12-24T16:08:41.624Z,6.47
2018-12-24T16:09:51.704Z,6.54
2018-12-24T16:11:01.839Z,6.54
2018-12-24T16:12:11.907Z,6.52
2018-12-24T16:13:21.979Z,6.49
2018-12-24T16:14:32.049Z,6.49
2018-12-24T16:15:42.142Z,6.46
2018-12-24T16:16:55.772Z,6.51
2018-12-24T16:18:08.325Z,6.44
2018-12-24T16:19:18.398Z,6.55
2018-12-24T16:20:28.478Z,6.52
2018-12-24T16:21:38.290Z,6.42
2018-12-24T16:22:48.175Z,6.51
2018-12-24T16:23:58.430Z,6.51
2018-12-24T16:25:08.678Z,6.44
2018-12-24T16:26:18.865Z,6.46